Time;durP1;ratioP1;P1;durP2;ratioP2;P2;SDS_P1;SDS_P2;PMS_P1;PMS_P2;Temp;Humidity;BMP_temperature;BMP_pressure;BME280_temperature;BME280_humidity;BME280_pressure;Samples;Min_cycle;Max_cycle;Signal;HPM_P1;HPM_P2
2021/04/03 00:00:35;;;;;;;13.47;8.57;;;6.20;82.20;;;;;;4971767;28;20537;-82
2021/04/03 00:03:17;;;;;;;10.73;7.53;;;6.20;82.20;;;;;;4972409;28;20564;-83
2021/04/03 00:05:45;;;;;;;13.73;8.53;;;6.10;82.20;;;;;;4973715;28;20683;-80
2021/04/03 00:08:13;;;;;;;11.00;7.87;;;6.20;82.30;;;;;;4972628;28;20205;-84
2021/04/03 00:10:45;;;;;;;13.63;7.70;;;6.20;82.50;;;;;;4986344;28;20199;-82
2021/04/03 00:13:14;;;;;;;12.70;7.80;;;6.10;82.60;;;;;;4995255;28;20219;-81
2021/04/03 00:15:42;;;;;;;11.17;7.20;;;6.10;82.70;;;;;;4982680;28;20204;-81
2021/04/03 00:18:11;;;;;;;10.67;7.50;;;6.10;82.80;;;;;;4978612;28;20211;-82
2021/04/03 00:20:40;;;;;;;9.30;7.23;;;6.10;82.70;;;;;;4979012;28;20437;-82
2021/04/03 00:23:07;;;;;;;12.17;7.90;;;6.10;82.70;;;;;;4982727;28;20211;-82
2021/04/03 00:25:36;;;;;;;10.97;7.90;;;6.10;82.70;;;;;;4982583;28;20211;-84
2021/04/03 00:28:04;;;;;;;11.30;7.53;;;6.00;82.90;;;;;;4974391;28;20213;-84
2021/04/03 00:30:32;;;;;;;12.23;7.80;;;6.00;83.10;;;;;;4986139;28;20256;-83
2021/04/03 00:33:04;;;;;;;12.20;8.30;;;6.00;83.20;;;;;;4993113;28;20415;-81
2021/04/03 00:35:34;;;;;;;13.73;8.30;;;5.90;83.50;;;;;;4974685;28;20301;-82
2021/04/03 00:38:04;;;;;;;14.07;8.00;;;6.00;83.40;;;;;;4977743;28;20212;-83
2021/04/03 00:40:35;;;;;;;11.70;7.83;;;5.90;83.30;;;;;;4969127;28;20271;-83
2021/04/03 00:43:06;;;;;;;10.73;7.30;;;5.80;83.70;;;;;;4976391;28;20204;-82
2021/04/03 00:45:35;;;;;;;11.37;7.70;;;5.80;83.60;;;;;;4976505;28;20307;-84
2021/04/03 00:48:04;;;;;;;12.13;8.00;;;5.70;83.80;;;;;;4977787;28;20223;-83
2021/04/03 00:50:34;;;;;;;13.40;8.17;;;5.70;84.10;;;;;;4972001;28;20220;-84
2021/04/03 00:53:04;;;;;;;11.77;7.10;;;5.70;84.10;;;;;;4973888;28;20201;-80
2021/04/03 00:55:33;;;;;;;8.77;6.57;;;5.70;84.20;;;;;;4995081;28;20188;-82
2021/04/03 00:58:01;;;;;;;11.43;7.33;;;5.70;83.90;;;;;;4992154;28;20204;-83
2021/04/03 01:00:29;;;;;;;11.03;6.50;;;5.70;83.80;;;;;;4986407;28;20260;-83
2021/04/03 01:02:57;;;;;;;10.50;7.03;;;5.70;83.80;;;;;;4987351;28;20188;-83
2021/04/03 01:05:26;;;;;;;8.73;6.50;;;5.70;83.90;;;;;;4989686;28;20552;-84
2021/04/03 01:07:54;;;;;;;8.40;6.30;;;5.70;83.90;;;;;;4996887;28;20208;-81
2021/04/03 01:10:28;;;;;;;9.50;7.10;;;5.60;84.00;;;;;;4982294;28;20319;-82
2021/04/03 01:13:08;;;;;;;11.00;6.57;;;5.50;84.00;;;;;;4976579;28;20204;-84
2021/04/03 01:15:43;;;;;;;10.63;7.23;;;5.50;84.10;;;;;;4978939;28;20203;-83
2021/04/03 01:18:19;;;;;;;12.33;7.13;;;5.30;84.10;;;;;;4976870;28;20204;-82
2021/04/03 01:20:57;;;;;;;11.43;6.20;;;5.20;84.30;;;;;;4970120;28;20208;-83
2021/04/03 01:23:52;;;;;;;9.70;6.30;;;5.20;84.80;;;;;;4970268;28;20212;-83
2021/04/03 01:26:52;;;;;;;10.73;6.67;;;5.30;84.80;;;;;;4969908;28;20218;-83
2021/04/03 01:30:01;;;;;;;9.33;6.20;;;5.30;84.60;;;;;;4968704;28;20239;-82
2021/04/03 01:32:35;;;;;;;11.00;6.67;;;5.20;84.70;;;;;;4973399;28;20631;-83
2021/04/03 01:35:06;;;;;;;14.50;7.40;;;5.00;84.50;;;;;;4970171;28;20593;-82
2021/04/03 01:37:40;;;;;;;10.03;7.00;;;4.90;85.00;;;;;;4972985;28;20213;-83
2021/04/03 01:40:10;;;;;;;11.90;7.07;;;4.90;85.20;;;;;;4990333;28;20208;-83
2021/04/03 01:42:40;;;;;;;9.10;6.87;;;4.90;85.30;;;;;;4982659;28;20210;-82
2021/04/03 01:45:10;;;;;;;11.83;6.50;;;4.90;85.40;;;;;;4980012;28;20594;-82
2021/04/03 01:47:40;;;;;;;11.57;7.00;;;4.80;85.60;;;;;;4972925;28;20407;-79
2021/04/03 01:50:10;;;;;;;8.20;6.07;;;4.90;85.90;;;;;;4983087;28;20227;-82
2021/04/03 01:52:39;;;;;;;11.70;6.50;;;4.90;86.00;;;;;;4979822;28;20585;-81
2021/04/03 01:55:11;;;;;;;9.57;6.40;;;5.00;85.80;;;;;;4987001;28;20489;-84
2021/04/03 01:57:41;;;;;;;9.60;6.23;;;5.00;85.80;;;;;;4983744;28;20290;-82
2021/04/03 02:00:12;;;;;;;8.67;6.27;;;5.10;85.70;;;;;;4980280;28;20230;-83
2021/04/03 02:02:40;;;;;;;10.07;6.20;;;5.10;85.70;;;;;;4981353;28;20652;-84
2021/04/03 02:05:12;;;;;;;9.70;6.50;;;5.20;85.50;;;;;;4975935;28;20212;-82
2021/04/03 02:07:42;;;;;;;10.67;6.47;;;5.30;85.60;;;;;;4975363;28;20240;-81
2021/04/03 02:10:11;;;;;;;8.67;6.10;;;5.30;85.30;;;;;;4972892;28;20236;-83
2021/04/03 02:12:41;;;;;;;11.37;6.33;;;5.30;85.40;;;;;;4970781;28;20203;-83
2021/04/03 02:15:12;;;;;;;11.13;6.60;;;5.30;85.50;;;;;;4970964;28;20213;-83
2021/04/03 02:17:43;;;;;;;10.53;6.20;;;5.30;85.80;;;;;;4968357;28;20200;-82
2021/04/03 02:20:13;;;;;;;8.30;6.13;;;5.20;85.60;;;;;;4972935;28;20212;-84
2021/04/03 02:22:42;;;;;;;10.83;6.80;;;5.30;85.50;;;;;;4975361;28;20201;-83
2021/04/03 02:25:11;;;;;;;9.83;6.10;;;5.20;85.70;;;;;;4977894;28;20579;-82
2021/04/03 02:27:39;;;;;;;9.10;6.20;;;5.20;85.70;;;;;;4979151;28;20215;-83
2021/04/03 02:30:16;;;;;;;10.67;6.43;;;5.20;85.60;;;;;;4993396;28;20442;-83
2021/04/03 02:32:47;;;;;;;8.87;6.60;;;5.20;85.60;;;;;;4997582;28;20230;-82
2021/04/03 02:35:16;;;;;;;12.10;6.37;;;5.20;85.80;;;;;;4996071;28;20262;-82
2021/04/03 02:37:45;;;;;;;9.60;6.73;;;5.10;86.00;;;;;;4991774;28;20204;-81
2021/04/03 02:40:17;;;;;;;10.40;6.70;;;5.10;86.00;;;;;;4999807;28;20194;-82
2021/04/03 02:42:51;;;;;;;10.10;7.00;;;5.10;86.00;;;;;;4997222;28;20191;-85
2021/04/03 02:45:22;;;;;;;8.10;6.23;;;5.20;85.90;;;;;;4991491;28;20377;-82
2021/04/03 02:47:54;;;;;;;9.73;6.17;;;5.20;85.80;;;;;;4992146;28;20188;-83
2021/04/03 02:50:27;;;;;;;7.53;5.40;;;5.20;85.70;;;;;;4997634;28;20247;-82
2021/04/03 02:52:57;;;;;;;5.70;4.33;;;5.20;85.30;;;;;;4977674;28;20324;-83
2021/04/03 02:55:28;;;;;;;8.03;5.00;;;5.20;84.80;;;;;;4980217;28;20246;-81
2021/04/03 02:57:57;;;;;;;7.60;4.57;;;5.20;84.80;;;;;;4979322;28;20212;-81
2021/04/03 03:00:27;;;;;;;6.17;3.93;;;5.20;85.10;;;;;;4987145;28;20304;-83
2021/04/03 03:02:56;;;;;;;9.00;4.47;;;5.20;84.70;;;;;;4987766;28;20201;-83
2021/04/03 03:05:24;;;;;;;8.90;4.13;;;5.30;85.00;;;;;;4990981;28;20200;-82
2021/04/03 03:07:53;;;;;;;5.40;4.20;;;5.10;85.00;;;;;;4982573;28;20212;-85
2021/04/03 03:10:21;;;;;;;8.93;4.80;;;5.00;85.10;;;;;;4992917;28;20230;-81
2021/04/03 03:12:51;;;;;;;5.63;3.43;;;5.10;85.20;;;;;;4983636;28;20204;-82
2021/04/03 03:15:21;;;;;;;6.37;3.70;;;5.00;85.10;;;;;;4981200;28;20630;-82
2021/04/03 03:17:51;;;;;;;6.20;4.17;;;5.00;85.20;;;;;;4981133;28;20767;-83
2021/04/03 03:20:20;;;;;;;5.67;3.60;;;4.90;85.20;;;;;;4978812;28;20267;-82
2021/04/03 03:22:49;;;;;;;6.10;4.17;;;4.90;85.20;;;;;;4973923;28;20680;-82
2021/04/03 03:25:17;;;;;;;5.80;3.67;;;4.90;85.20;;;;;;4981346;28;20196;-84
2021/04/03 03:27:46;;;;;;;7.10;4.10;;;4.90;84.90;;;;;;4983139;28;20202;-83
2021/04/03 03:30:17;;;;;;;6.27;3.37;;;4.70;84.80;;;;;;4981584;28;20700;-83
2021/04/03 03:32:46;;;;;;;4.70;3.53;;;4.90;84.90;;;;;;4984209;28;20770;-84
2021/04/03 03:35:14;;;;;;;6.37;3.90;;;4.90;85.00;;;;;;4976480;28;20245;-82
2021/04/03 03:37:47;;;;;;;5.43;3.67;;;4.90;85.00;;;;;;4976982;28;21020;-85
2021/04/03 03:40:16;;;;;;;4.97;3.60;;;5.00;84.80;;;;;;4976460;28;20219;-83
2021/04/03 03:42:45;;;;;;;5.87;3.93;;;4.90;84.80;;;;;;4972025;28;20205;-83
2021/04/03 03:45:14;;;;;;;5.93;4.03;;;4.90;84.80;;;;;;4978645;28;20211;-82
2021/04/03 03:47:42;;;;;;;6.10;3.80;;;4.90;84.90;;;;;;4977675;28;20589;-80
2021/04/03 03:50:11;;;;;;;7.20;4.27;;;4.90;85.10;;;;;;4974443;28;20234;-82
2021/04/03 03:52:39;;;;;;;5.33;3.83;;;5.00;85.10;;;;;;4978245;28;20419;-83
2021/04/03 03:55:09;;;;;;;6.77;4.40;;;5.00;85.30;;;;;;4988594;28;20197;-81
2021/04/03 03:57:36;;;;;;;6.20;3.53;;;4.90;85.60;;;;;;4999783;28;20234;-82
2021/04/03 04:00:06;;;;;;;6.77;4.53;;;4.90;85.90;;;;;;4992534;28;20299;-82
2021/04/03 04:02:33;;;;;;;5.20;3.77;;;4.80;85.90;;;;;;4978259;28;20476;-83
2021/04/03 04:05:01;;;;;;;7.03;3.93;;;4.80;86.00;;;;;;4976333;28;20684;-83
2021/04/03 04:07:34;;;;;;;6.53;3.23;;;4.80;86.00;;;;;;4978985;28;20219;-84
2021/04/03 04:10:02;;;;;;;4.63;4.20;;;4.70;86.30;;;;;;4976839;28;20235;-83
2021/04/03 04:12:31;;;;;;;6.20;5.13;;;4.70;86.50;;;;;;4977002;28;20735;-81
2021/04/03 04:14:58;;;;;;;4.40;3.93;;;4.70;87.10;;;;;;4976591;28;20225;-82
2021/04/03 04:17:26;;;;;;;6.60;4.20;;;4.60;88.60;;;;;;4981082;28;20204;-81
2021/04/03 04:19:54;;;;;;;5.63;4.23;;;4.50;89.60;;;;;;4992200;28;20270;-84
2021/04/03 04:22:22;;;;;;;7.13;4.97;;;4.50;90.20;;;;;;4982623;28;20231;-82
2021/04/03 04:24:50;;;;;;;7.73;5.30;;;4.20;90.70;;;;;;4980835;28;20207;-82
2021/04/03 04:27:18;;;;;;;9.30;5.57;;;4.10;91.60;;;;;;4984515;28;20191;-83
2021/04/03 04:29:47;;;;;;;8.50;6.17;;;3.90;92.70;;;;;;4984339;28;20238;-82
2021/04/03 04:32:14;;;;;;;7.53;5.33;;;3.90;93.40;;;;;;4984021;28;20209;-82
2021/04/03 04:34:42;;;;;;;11.07;5.90;;;3.80;93.90;;;;;;4990397;28;20224;-83
2021/04/03 04:37:10;;;;;;;9.43;5.73;;;3.70;94.40;;;;;;4987455;28;20209;-82
2021/04/03 04:39:38;;;;;;;9.43;6.30;;;3.70;94.80;;;;;;4991933;28;20202;-83
2021/04/03 04:42:05;;;;;;;8.17;5.53;;;3.70;95.60;;;;;;4992215;28;20210;-84
2021/04/03 04:44:36;;;;;;;7.10;5.50;;;3.60;96.30;;;;;;4989703;28;20232;-82
2021/04/03 04:47:05;;;;;;;11.07;5.27;;;3.60;96.70;;;;;;4977289;28;20220;-83
2021/04/03 04:49:33;;;;;;;8.57;6.00;;;3.50;97.30;;;;;;4979946;28;20795;-84
2021/04/03 04:52:00;;;;;;;7.57;6.07;;;3.60;97.70;;;;;;4977566;28;20726;-81
2021/04/03 04:54:28;;;;;;;7.73;5.03;;;3.40;98.90;;;;;;4979702;28;20485;-81
2021/04/03 04:56:55;;;;;;;10.60;6.13;;;3.40;99.70;;;;;;4982209;28;20219;-81
2021/04/03 04:59:24;;;;;;;11.67;6.63;;;3.50;99.90;;;;;;4983368;28;20224;-82
2021/04/03 05:01:55;;;;;;;9.60;6.90;;;3.40;99.80;;;;;;4983719;28;20590;-84
2021/04/03 05:04:24;;;;;;;10.27;5.03;;;3.50;99.90;;;;;;4987819;28;20219;-82
2021/04/03 05:06:53;;;;;;;9.93;5.50;;;3.50;99.90;;;;;;4984291;28;20210;-84
2021/04/03 05:09:21;;;;;;;10.37;6.17;;;3.50;99.90;;;;;;4988034;28;20201;-81
2021/04/03 05:11:50;;;;;;;10.90;6.27;;;3.50;99.90;;;;;;4988951;28;20264;-81
2021/04/03 05:14:17;;;;;;;8.20;5.97;;;3.50;99.90;;;;;;4978907;28;20974;-81
2021/04/03 05:16:45;;;;;;;7.47;5.13;;;3.50;99.90;;;;;;4979630;28;20209;-81
2021/04/03 05:19:13;;;;;;;7.27;5.03;;;3.60;99.90;;;;;;4988073;28;20211;-83
2021/04/03 05:21:41;;;;;;;7.30;4.80;;;3.60;99.90;;;;;;4994264;28;20195;-82
2021/04/03 05:24:09;;;;;;;7.73;4.90;;;3.80;99.90;;;;;;4998543;28;20199;-80
2021/04/03 05:26:37;;;;;;;7.23;4.63;;;3.60;99.90;;;;;;4997401;28;20192;-81
2021/04/03 05:29:05;;;;;;;6.63;4.77;;;3.70;99.90;;;;;;4995716;28;20215;-83
2021/04/03 05:31:33;;;;;;;7.10;4.57;;;3.70;99.90;;;;;;4989785;28;20277;-81
2021/04/03 05:34:01;;;;;;;7.67;5.10;;;3.70;99.90;;;;;;4998076;28;20746;-80
2021/04/03 05:36:28;;;;;;;9.20;5.73;;;3.70;99.90;;;;;;4996048;28;20439;-82
2021/04/03 05:38:57;;;;;;;8.10;5.67;;;3.70;99.90;;;;;;4983977;28;20214;-82
2021/04/03 05:41:25;;;;;;;7.97;5.67;;;3.70;99.90;;;;;;4987638;28;20211;-81
2021/04/03 05:43:55;;;;;;;9.83;6.63;;;3.70;99.90;;;;;;4985624;28;20209;-82
2021/04/03 05:46:23;;;;;;;9.80;6.60;;;3.70;99.90;;;;;;4986002;28;20216;-81
2021/04/03 05:48:51;;;;;;;7.73;6.13;;;3.70;99.90;;;;;;4987430;28;20206;-82
2021/04/03 05:51:19;;;;;;;9.63;7.30;;;3.70;99.90;;;;;;4985583;28;20237;-83
2021/04/03 05:53:48;;;;;;;12.27;7.17;;;3.80;99.90;;;;;;4988587;28;20566;-84
2021/04/03 05:56:18;;;;;;;8.00;6.13;;;3.80;99.90;;;;;;4987404;28;20202;-81
2021/04/03 05:58:46;;;;;;;9.93;7.53;;;3.70;99.90;;;;;;4994345;28;20201;-81
2021/04/03 06:01:14;;;;;;;10.47;7.57;;;3.60;99.90;;;;;;4987216;28;20276;-81
2021/04/03 06:03:42;;;;;;;9.40;7.20;;;3.80;99.90;;;;;;4996595;28;20214;-82
2021/04/03 06:06:13;;;;;;;9.93;7.60;;;3.80;99.90;;;;;;4995962;28;20190;-81
2021/04/03 06:08:41;;;;;;;9.30;7.33;;;3.90;99.90;;;;;;4997138;28;20205;-83
2021/04/03 06:11:18;;;;;;;12.00;7.87;;;3.90;99.90;;;;;;5003740;28;20466;-83
2021/04/03 06:14:04;;;;;;;12.43;8.20;;;3.90;99.90;;;;;;4987078;28;20210;-82
2021/04/03 06:16:32;;;;;;;11.33;7.60;;;3.90;99.90;;;;;;4998325;28;20189;-82
2021/04/03 06:19:12;;;;;;;11.17;7.47;;;3.90;99.90;;;;;;4995715;28;20689;-81
2021/04/03 06:21:41;;;;;;;11.43;7.93;;;3.90;99.90;;;;;;4980682;28;20211;-83
2021/04/03 06:24:20;;;;;;;9.90;7.63;;;4.00;99.90;;;;;;4981835;28;20207;-83
2021/04/03 06:27:03;;;;;;;12.50;8.33;;;4.00;99.90;;;;;;4977185;28;20319;-82
2021/04/03 06:29:36;;;;;;;10.90;7.23;;;4.10;99.90;;;;;;4981209;28;20222;-84
2021/04/03 06:32:06;;;;;;;12.07;8.30;;;4.20;99.90;;;;;;4981715;28;20199;-81
2021/04/03 06:34:39;;;;;;;14.33;8.80;;;4.20;99.90;;;;;;4978405;28;20216;-83
2021/04/03 06:37:09;;;;;;;8.93;7.00;;;4.30;99.90;;;;;;4980442;28;20231;-81
2021/04/03 06:39:56;;;;;;;9.70;7.57;;;4.40;99.90;;;;;;4976999;28;20215;-81
2021/04/03 06:42:38;;;;;;;13.30;8.33;;;4.40;98.90;;;;;;4990848;28;20199;-83
2021/04/03 06:45:26;;;;;;;11.83;7.97;;;4.40;97.90;;;;;;4984181;28;20741;-84
2021/04/03 06:47:57;;;;;;;11.83;7.70;;;4.40;98.00;;;;;;4995454;28;20191;-82
2021/04/03 06:50:26;;;;;;;11.10;7.90;;;4.60;98.30;;;;;;4996059;28;20235;-82
2021/04/03 06:52:55;;;;;;;10.67;7.73;;;4.30;97.40;;;;;;4994932;28;20392;-83
2021/04/03 06:55:24;;;;;;;13.67;8.30;;;4.30;98.50;;;;;;4985516;28;20769;-81
2021/04/03 06:57:54;;;;;;;11.63;7.83;;;4.30;99.00;;;;;;4978141;28;20207;-83
2021/04/03 07:00:23;;;;;;;14.13;8.47;;;4.40;99.30;;;;;;4974845;28;20232;-82
2021/04/03 07:02:56;;;;;;;11.10;7.50;;;4.40;96.50;;;;;;4978711;28;20204;-82
2021/04/03 07:05:26;;;;;;;9.90;8.10;;;4.50;96.70;;;;;;4978308;28;21014;-81
2021/04/03 07:07:56;;;;;;;11.50;7.80;;;4.60;95.80;;;;;;4977812;28;20207;-84
2021/04/03 07:10:27;;;;;;;9.93;7.67;;;4.50;94.70;;;;;;4973646;28;20510;-82
2021/04/03 07:12:56;;;;;;;11.47;6.80;;;4.60;95.10;;;;;;4985123;28;20309;-82
2021/04/03 07:15:25;;;;;;;12.27;7.80;;;4.60;92.90;;;;;;4972653;28;20197;-82
2021/04/03 07:17:53;;;;;;;12.10;7.50;;;4.60;92.30;;;;;;4980466;28;20350;-82
2021/04/03 07:20:23;;;;;;;12.00;8.13;;;4.70;92.20;;;;;;4975399;28;20204;-84
2021/04/03 07:22:55;;;;;;;9.90;7.57;;;4.60;92.30;;;;;;4974104;28;20239;-82
2021/04/03 07:25:26;;;;;;;11.37;7.67;;;4.60;92.30;;;;;;4977907;28;20204;-82
2021/04/03 07:27:55;;;;;;;10.70;7.83;;;4.70;92.30;;;;;;4978077;28;20200;-81
2021/04/03 07:30:41;;;;;;;9.20;7.37;;;4.70;91.80;;;;;;4984553;28;20232;-82
2021/04/03 07:33:10;;;;;;;8.47;6.90;;;4.70;92.10;;;;;;4977943;28;20208;-82
2021/04/03 07:35:39;;;;;;;7.27;5.13;;;4.70;91.60;;;;;;4979608;28;20197;-80
2021/04/03 07:38:10;;;;;;;12.83;7.93;;;4.70;91.00;;;;;;4986764;28;20204;-82
2021/04/03 07:40:45;;;;;;;10.50;7.40;;;4.60;92.10;;;;;;4976142;28;20200;-82
2021/04/03 07:43:47;;;;;;;8.67;6.73;;;4.60;91.90;;;;;;4982911;28;20279;-81
2021/04/03 07:46:40;;;;;;;9.63;7.40;;;4.50;91.90;;;;;;4986123;28;20262;-81
2021/04/03 07:49:10;;;;;;;11.10;7.27;;;4.60;92.70;;;;;;4984544;28;20224;-81
2021/04/03 07:51:55;;;;;;;9.20;7.03;;;4.40;92.20;;;;;;4978464;28;20587;-83
2021/04/03 07:54:31;;;;;;;9.57;6.07;;;4.50;90.10;;;;;;4987245;28;20205;-83
2021/04/03 07:57:04;;;;;;;5.93;4.90;;;4.50;89.30;;;;;;4975530;28;20242;-82
2021/04/03 07:59:52;;;;;;;6.63;5.93;;;4.60;88.80;;;;;;4976603;28;20331;-83
2021/04/03 08:02:22;;;;;;;8.23;5.73;;;4.70;88.60;;;;;;4977346;28;20204;-82
2021/04/03 08:04:51;;;;;;;10.40;6.27;;;4.70;87.90;;;;;;4978471;28;20200;-82
2021/04/03 08:07:24;;;;;;;7.67;5.73;;;4.90;88.00;;;;;;4976580;28;20635;-84
2021/04/03 08:09:52;;;;;;;5.63;4.27;;;5.10;87.80;;;;;;4975038;28;20215;-81
2021/04/03 08:12:28;;;;;;;7.37;5.50;;;5.30;85.70;;;;;;4975049;28;20219;-83
2021/04/03 08:14:58;;;;;;;8.80;6.10;;;5.20;85.30;;;;;;4995259;28;20208;-82
2021/04/03 08:17:27;;;;;;;7.10;5.93;;;5.40;85.60;;;;;;4993347;28;20225;-83
2021/04/03 08:20:00;;;;;;;9.47;4.27;;;5.40;84.80;;;;;;4998497;28;20205;-82
2021/04/03 08:22:28;;;;;;;8.10;5.77;;;5.40;84.80;;;;;;4986057;28;20196;-84
2021/04/03 08:25:00;;;;;;;6.60;5.70;;;5.50;84.60;;;;;;4992893;28;20224;-83
2021/04/03 08:27:35;;;;;;;7.53;6.20;;;5.50;85.20;;;;;;4991852;28;20223;-81
2021/04/03 08:30:21;;;;;;;7.53;6.30;;;5.60;84.30;;;;;;4988863;28;20235;-81
2021/04/03 08:33:10;;;;;;;7.13;6.10;;;5.60;84.00;;;;;;4990108;28;20231;-80
2021/04/03 08:35:40;;;;;;;8.00;6.33;;;5.80;83.90;;;;;;4990671;28;20192;-83
2021/04/03 08:38:19;;;;;;;8.57;5.87;;;6.00;84.30;;;;;;4992874;28;20239;-82
2021/04/03 08:40:48;;;;;;;6.50;5.60;;;6.30;83.30;;;;;;4981075;28;20220;-83
2021/04/03 08:43:17;;;;;;;8.37;5.60;;;6.30;83.20;;;;;;4989340;28;20292;-83
2021/04/03 08:45:50;;;;;;;7.00;5.70;;;6.30;82.00;;;;;;4976795;28;20227;-82
2021/04/03 08:48:19;;;;;;;7.40;5.40;;;6.40;82.00;;;;;;4981914;28;20215;-82
2021/04/03 08:50:49;;;;;;;7.40;5.13;;;6.40;82.50;;;;;;4975183;28;20229;-82
2021/04/03 08:53:16;;;;;;;7.13;5.63;;;6.30;81.90;;;;;;4978243;28;20305;-83
2021/04/03 08:55:44;;;;;;;5.83;5.27;;;6.30;82.60;;;;;;4978003;28;20240;-81
2021/04/03 08:58:14;;;;;;;6.53;5.87;;;6.50;82.70;;;;;;4985135;28;21318;-82
2021/04/03 09:00:46;;;;;;;6.23;4.83;;;6.20;82.70;;;;;;4998937;28;20207;-81
2021/04/03 09:03:16;;;;;;;7.40;4.70;;;6.40;82.60;;;;;;4990092;28;20214;-81
2021/04/03 09:05:48;;;;;;;14.40;4.17;;;6.60;81.70;;;;;;4992144;28;20654;-81
2021/04/03 09:08:20;;;;;;;5.53;5.03;;;6.60;81.10;;;;;;4987126;28;20287;-80
2021/04/03 09:10:53;;;;;;;5.53;4.23;;;6.70;81.80;;;;;;4976236;28;20444;-82
2021/04/03 09:13:21;;;;;;;5.87;4.60;;;6.80;81.30;;;;;;4984755;28;20214;-84
2021/04/03 09:15:50;;;;;;;4.80;4.20;;;7.00;81.80;;;;;;4999569;28;20214;-82
2021/04/03 09:18:19;;;;;;;5.07;3.70;;;7.20;81.20;;;;;;4998209;28;20206;-82
2021/04/03 09:20:49;;;;;;;4.50;4.10;;;7.30;80.90;;;;;;4997721;28;20320;-82
2021/04/03 09:23:23;;;;;;;6.30;4.30;;;7.20;81.10;;;;;;4976570;28;20207;-83
2021/04/03 09:26:02;;;;;;;5.33;4.10;;;7.30;81.10;;;;;;4977681;28;20643;-84
2021/04/03 09:28:38;;;;;;;5.27;3.93;;;7.40;80.90;;;;;;4988769;28;20213;-83
2021/04/03 09:31:08;;;;;;;3.93;3.63;;;7.60;80.60;;;;;;4996361;28;20219;-82
2021/04/03 09:33:45;;;;;;;6.07;4.00;;;7.60;80.30;;;;;;5001073;28;20216;-86
2021/04/03 09:36:16;;;;;;;5.60;4.10;;;7.60;80.50;;;;;;5004271;28;20211;-80
2021/04/03 09:38:46;;;;;;;5.93;3.70;;;7.70;80.20;;;;;;4996178;28;20196;-81
2021/04/03 09:41:25;;;;;;;3.87;3.37;;;7.80;79.90;;;;;;5002238;28;20357;-83
2021/04/03 09:43:53;;;;;;;4.10;3.10;;;7.70;79.10;;;;;;5001449;28;20216;-81
2021/04/03 09:46:23;;;;;;;4.33;3.37;;;7.60;79.60;;;;;;4999178;28;20204;-82
2021/04/03 09:48:53;;;;;;;4.30;3.43;;;7.30;79.10;;;;;;4986050;28;20207;-85
2021/04/03 09:51:23;;;;;;;5.00;3.80;;;7.10;79.40;;;;;;4985625;28;20233;-82
2021/04/03 09:53:52;;;;;;;5.23;3.17;;;7.10;80.00;;;;;;4983934;28;20316;-80
2021/04/03 09:56:21;;;;;;;3.50;3.20;;;7.20;79.60;;;;;;4995591;28;20242;-83
2021/04/03 09:58:53;;;;;;;3.30;3.00;;;7.30;79.70;;;;;;4980202;28;20205;-84
2021/04/03 10:01:22;;;;;;;3.43;2.80;;;7.50;79.40;;;;;;4988871;28;20327;-83
2021/04/03 10:03:51;;;;;;;3.47;3.00;;;7.50;79.30;;;;;;4999850;28;20334;-83
2021/04/03 10:06:20;;;;;;;4.77;2.60;;;7.60;79.30;;;;;;4995644;28;20367;-83
2021/04/03 10:08:47;;;;;;;2.80;2.50;;;7.60;78.90;;;;;;4986228;28;20205;-85
2021/04/03 10:11:16;;;;;;;3.20;2.90;;;7.50;78.80;;;;;;4985270;28;20245;-84
2021/04/03 10:13:45;;;;;;;3.00;2.63;;;7.40;79.20;;;;;;4989097;28;20263;-83
2021/04/03 10:16:13;;;;;;;2.97;2.63;;;7.50;78.40;;;;;;4992277;28;20204;-82
2021/04/03 10:18:44;;;;;;;3.67;2.43;;;8.00;78.70;;;;;;4982375;28;21211;-82
2021/04/03 10:21:13;;;;;;;3.13;2.40;;;8.00;77.70;;;;;;4991211;28;20297;-83
2021/04/03 10:23:40;;;;;;;2.60;2.10;;;7.90;78.20;;;;;;4980360;28;20580;-85
2021/04/03 10:26:09;;;;;;;2.17;1.50;;;7.70;77.10;;;;;;4978298;28;20220;-83
2021/04/03 10:28:36;;;;;;;2.33;1.90;;;7.40;77.70;;;;;;4979233;28;20307;-83
2021/04/03 10:31:04;;;;;;;1.93;1.70;;;7.30;77.30;;;;;;4974408;28;20221;-84
2021/04/03 10:33:36;;;;;;;2.27;1.43;;;7.20;75.90;;;;;;4980810;28;20216;-83
2021/04/03 10:36:05;;;;;;;1.90;1.53;;;7.50;75.40;;;;;;4984162;28;20202;-81
2021/04/03 10:38:34;;;;;;;3.63;1.60;;;7.50;74.80;;;;;;4983664;28;20199;-83
2021/04/03 10:41:03;;;;;;;1.87;1.53;;;7.80;75.10;;;;;;4979607;28;20439;-83
2021/04/03 10:43:32;;;;;;;3.03;1.60;;;8.10;74.60;;;;;;4979174;28;20678;-84
2021/04/03 10:46:00;;;;;;;3.10;2.30;;;8.30;74.40;;;;;;4977463;28;20275;-82
2021/04/03 10:48:28;;;;;;;3.43;2.27;;;8.00;74.20;;;;;;4975450;28;20620;-84
2021/04/03 10:50:57;;;;;;;2.00;1.60;;;8.10;74.10;;;;;;4974818;28;20255;-84
2021/04/03 10:53:27;;;;;;;3.10;1.80;;;8.10;74.40;;;;;;4975831;28;20212;-82
2021/04/03 10:55:55;;;;;;;2.60;1.37;;;8.10;74.50;;;;;;4981721;28;20557;-84
2021/04/03 10:58:25;;;;;;;2.27;1.50;;;8.00;73.80;;;;;;4977205;28;21000;-82
2021/04/03 11:00:53;;;;;;;3.10;1.40;;;7.80;73.50;;;;;;4974024;28;20199;-83
2021/04/03 11:03:23;;;;;;;3.70;1.77;;;7.70;73.10;;;;;;4993593;28;20210;-83
2021/04/03 11:05:51;;;;;;;2.30;1.60;;;7.90;73.40;;;;;;4986609;28;20216;-83
2021/04/03 11:08:23;;;;;;;3.07;2.10;;;8.00;73.40;;;;;;4994905;28;20555;-82
2021/04/03 11:10:53;;;;;;;2.93;2.63;;;8.10;73.90;;;;;;4997358;28;20228;-83
2021/04/03 11:13:21;;;;;;;2.13;1.93;;;8.40;73.90;;;;;;4992907;28;20223;-83
2021/04/03 11:15:49;;;;;;;3.33;1.90;;;8.50;72.40;;;;;;4981307;28;20345;-84
2021/04/03 11:18:18;;;;;;;4.73;2.00;;;8.80;72.60;;;;;;4978926;28;20338;-83
2021/04/03 11:20:49;;;;;;;2.03;1.43;;;8.80;72.20;;;;;;4977278;28;20553;-83
2021/04/03 11:23:18;;;;;;;2.60;1.73;;;8.40;72.90;;;;;;4978714;28;20289;-84
2021/04/03 11:25:48;;;;;;;2.30;1.50;;;8.20;73.50;;;;;;4979135;28;20215;-83
2021/04/03 11:28:17;;;;;;;3.27;1.57;;;8.30;73.50;;;;;;4982092;28;20207;-83
2021/04/03 11:30:46;;;;;;;1.97;1.10;;;8.50;73.50;;;;;;4993631;28;20255;-83
2021/04/03 11:33:14;;;;;;;2.80;1.30;;;8.30;72.10;;;;;;4998134;28;20262;-82
2021/04/03 11:35:42;;;;;;;2.27;1.30;;;8.30;71.80;;;;;;4997811;28;20192;-82
2021/04/03 11:38:10;;;;;;;2.80;1.03;;;8.20;70.90;;;;;;4979750;28;20238;-83
2021/04/03 11:40:39;;;;;;;1.73;1.27;;;8.00;71.20;;;;;;4982047;28;20243;-84
2021/04/03 11:43:09;;;;;;;1.83;1.30;;;8.20;71.30;;;;;;4984812;28;20321;-83
2021/04/03 11:45:39;;;;;;;1.90;1.27;;;8.30;71.00;;;;;;4982146;28;20213;-80
2021/04/03 11:48:10;;;;;;;1.23;1.13;;;8.60;72.00;;;;;;4983003;28;20271;-83
2021/04/03 11:50:41;;;;;;;1.50;0.90;;;8.40;71.70;;;;;;4979900;28;20223;-82
2021/04/03 11:53:10;;;;;;;2.00;1.30;;;8.40;71.60;;;;;;4979876;28;20209;-83
2021/04/03 11:55:38;;;;;;;1.47;1.00;;;8.30;72.20;;;;;;4977582;28;20556;-81
2021/04/03 11:58:06;;;;;;;0.80;0.70;;;8.30;71.50;;;;;;4982860;28;20200;-85
2021/04/03 12:00:34;;;;;;;0.70;0.70;;;8.30;70.50;;;;;;4978508;28;20284;-83
2021/04/03 12:03:03;;;;;;;2.43;0.97;;;8.30;69.90;;;;;;4977538;28;20490;-83
2021/04/03 12:05:34;;;;;;;2.77;0.80;;;8.30;69.90;;;;;;4978154;28;20212;-82
2021/04/03 12:08:02;;;;;;;1.10;0.97;;;8.40;70.10;;;;;;4984457;28;20212;-81
2021/04/03 12:10:30;;;;;;;1.30;1.13;;;8.40;69.50;;;;;;4983870;28;20221;-81
2021/04/03 12:13:01;;;;;;;1.67;1.10;;;8.40;69.30;;;;;;4982965;28;20208;-84
2021/04/03 12:15:31;;;;;;;1.90;1.10;;;8.20;69.60;;;;;;4979913;28;20272;-82
2021/04/03 12:18:02;;;;;;;0.93;0.80;;;8.60;69.80;;;;;;4980746;28;20694;-84
2021/04/03 12:20:30;;;;;;;1.87;0.97;;;8.80;68.80;;;;;;4995575;28;20742;-83
2021/04/03 12:23:00;;;;;;;1.53;1.40;;;9.10;69.00;;;;;;4993014;28;20192;-81
2021/04/03 12:25:29;;;;;;;0.50;0.50;;;9.20;68.80;;;;;;4990236;28;20267;-84
2021/04/03 12:27:57;;;;;;;2.30;1.17;;;9.00;68.50;;;;;;4984847;28;20267;-81
2021/04/03 12:30:26;;;;;;;1.00;1.00;;;8.80;69.10;;;;;;4984243;28;20279;-84
2021/04/03 12:32:55;;;;;;;1.50;0.70;;;8.50;69.20;;;;;;4982087;28;20213;-82
2021/04/03 12:35:25;;;;;;;1.93;0.57;;;8.20;69.20;;;;;;4999301;28;20370;-81
2021/04/03 12:37:52;;;;;;;1.27;0.50;;;8.10;69.10;;;;;;4997342;28;20211;-83
2021/04/03 12:40:20;;;;;;;3.47;0.47;;;8.10;68.80;;;;;;4992949;28;20209;-81
2021/04/03 12:42:50;;;;;;;0.73;0.50;;;8.20;68.70;;;;;;4986947;28;20201;-83
2021/04/03 12:45:22;;;;;;;0.77;0.77;;;8.10;68.60;;;;;;4989794;28;20204;-83
2021/04/03 12:47:50;;;;;;;2.17;0.70;;;8.10;68.40;;;;;;4981896;28;20305;-83
2021/04/03 12:50:19;;;;;;;0.47;0.47;;;8.20;68.60;;;;;;4980222;28;20210;-82
2021/04/03 12:52:56;;;;;;;0.97;0.60;;;8.20;67.60;;;;;;4990962;28;20220;-83
2021/04/03 12:55:28;;;;;;;1.30;0.60;;;8.40;66.90;;;;;;4992146;28;20360;-84
2021/04/03 12:57:56;;;;;;;1.23;0.80;;;8.60;65.00;;;;;;4998608;28;20275;-83
2021/04/03 13:00:26;;;;;;;0.73;0.50;;;8.80;64.50;;;;;;4996080;28;20189;-84
2021/04/03 13:02:54;;;;;;;0.80;0.80;;;9.00;64.10;;;;;;4988949;28;20200;-82
2021/04/03 13:05:23;;;;;;;0.97;0.87;;;9.10;64.10;;;;;;4994222;28;20209;-83
2021/04/03 13:07:52;;;;;;;1.60;0.90;;;9.20;64.00;;;;;;4993370;28;20212;-83
2021/04/03 13:10:22;;;;;;;2.37;0.53;;;9.20;64.20;;;;;;4983288;28;20204;-85
2021/04/03 13:12:50;;;;;;;2.37;0.83;;;9.20;63.60;;;;;;4981857;28;20235;-82